createdAt,value
2023-04-16T00:00:39.032Z,100823.25
2023-04-16T00:03:05.945Z,100825.31
2023-04-16T00:05:33.090Z,100832.47
2023-04-16T00:07:59.726Z,100824.97
2023-04-16T00:10:26.383Z,100827.94
2023-04-16T00:12:53.089Z,100822.69
2023-04-16T00:15:20.007Z,100824.78
2023-04-16T00:17:47.083Z,100817.44
2023-04-16T00:20:13.888Z,100821.22
2023-04-16T00:22:40.754Z,100820.84
2023-04-16T00:25:07.760Z,100812.91
2023-04-16T00:27:34.349Z,100812.50
2023-04-16T00:30:01.079Z,100810.41
2023-04-16T00:32:27.704Z,100813.81
2023-04-16T00:34:54.307Z,100817.56
2023-04-16T00:37:20.902Z,100816.31
2023-04-16T00:39:47.506Z,100813.19
2023-04-16T00:42:14.169Z,100810.69
2023-04-16T00:44:40.855Z,100809.63
2023-04-16T00:47:07.743Z,100807.13
2023-04-16T00:49:36.101Z,100806.13
2023-04-16T00:52:03.417Z,100808.00
2023-04-16T00:54:31.750Z,100820.00
2023-04-16T00:56:59.663Z,100810.34
2023-04-16T00:59:27.150Z,100815.84
2023-04-16T01:01:53.993Z,100819.78
2023-04-16T01:04:21.460Z,100822.31
2023-04-16T01:06:48.197Z,100824.84
2023-04-16T01:09:14.897Z,100824.19
2023-04-16T01:11:41.544Z,100826.09
2023-04-16T01:14:08.488Z,100828.59
2023-04-16T01:16:35.234Z,100824.44
2023-04-16T01:19:01.847Z,100824.44
2023-04-16T01:21:28.643Z,100824.91
2023-04-16T01:23:55.283Z,100827.03
2023-04-16T01:26:21.910Z,100826.59
2023-04-16T01:28:48.507Z,100830.75
2023-04-16T01:31:15.175Z,100831.59
2023-04-16T01:33:41.845Z,100830.59
2023-04-16T01:36:08.533Z,100833.31
2023-04-16T01:38:35.148Z,100833.09
2023-04-16T01:41:02.244Z,100835.44
2023-04-16T01:43:28.950Z,100828.31
2023-04-16T01:46:12.232Z,100832.94
2023-04-16T01:48:39.197Z,100832.94
2023-04-16T01:51:05.984Z,100826.03
2023-04-16T01:53:32.616Z,100823.75
2023-04-16T01:55:59.238Z,100828.38
2023-04-16T01:58:27.913Z,100818.13
2023-04-16T02:00:54.531Z,100818.13
2023-04-16T02:03:21.594Z,100822.56
2023-04-16T02:05:48.410Z,100819.19
2023-04-16T02:08:15.041Z,100824.66
2023-04-16T02:10:42.028Z,100821.72
2023-04-16T02:13:08.898Z,100823.84
2023-04-16T02:15:35.611Z,100815.44
2023-04-16T02:18:02.366Z,100816.72
2023-04-16T02:20:29.164Z,100816.31
2023-04-16T02:22:56.006Z,100807.50
2023-04-16T02:25:24.297Z,100807.50
2023-04-16T02:27:51.287Z,100817.13
2023-04-16T02:30:18.066Z,100804.13
2023-04-16T02:32:44.740Z,100813.16
2023-04-16T02:35:11.417Z,100815.25
2023-04-16T02:37:40.831Z,100809.16
2023-04-16T02:40:08.182Z,100808.75
2023-04-16T02:42:34.806Z,100799.72
2023-04-16T02:45:01.511Z,100803.69
2023-04-16T02:47:29.335Z,100805.38
2023-04-16T02:49:55.936Z,100797.59
2023-04-16T02:52:22.508Z,100790.03
2023-04-16T02:54:49.134Z,100792.16
2023-04-16T02:57:16.027Z,100795.72
2023-04-16T02:59:42.719Z,100789.00
2023-04-16T03:02:09.366Z,100787.75
2023-04-16T03:04:36.200Z,100791.50
2023-04-16T03:07:02.881Z,100785.00
2023-04-16T03:09:29.498Z,100790.22
2023-04-16T03:11:56.870Z,100779.75
2023-04-16T03:14:23.554Z,100778.91
2023-04-16T03:16:50.137Z,100774.28
2023-04-16T03:19:16.768Z,100773.63
2023-04-16T03:21:43.378Z,100773.84
2023-04-16T03:24:10.054Z,100769.66
2023-04-16T03:26:36.675Z,100769.03
2023-04-16T03:29:03.543Z,100775.94
2023-04-16T03:31:30.640Z,100771.75
2023-04-16T03:33:57.279Z,100774.06
2023-04-16T03:36:24.050Z,100774.69
2023-04-16T03:38:50.953Z,100773.44
2023-04-16T03:41:17.595Z,100768.38
2023-04-16T03:43:44.563Z,100774.91
2023-04-16T03:46:11.380Z,100769.44
2023-04-16T03:48:38.051Z,100774.25
2023-04-16T03:51:04.816Z,100773.44
2023-04-16T03:53:31.464Z,100772.19
2023-04-16T03:55:58.095Z,100770.91
2023-04-16T03:58:24.714Z,100770.69
2023-04-16T04:00:53.445Z,100770.47
2023-04-16T04:03:20.248Z,100766.25
2023-04-16T04:05:47.033Z,100773.00
2023-04-16T04:08:13.638Z,100769.22
2023-04-16T04:10:40.812Z,100766.28
2023-04-16T04:13:07.712Z,100763.56
2023-04-16T04:15:34.340Z,100769.66
2023-04-16T04:18:01.084Z,100765.03
2023-04-16T04:20:27.794Z,100766.91
2023-04-16T04:22:54.380Z,100770.50
2023-04-16T04:25:21.043Z,100769.66
2023-04-16T04:27:47.717Z,100767.16
2023-04-16T04:30:14.367Z,100769.44
2023-04-16T04:32:41.053Z,100767.97
2023-04-16T04:35:08.118Z,100771.75
2023-04-16T04:37:34.746Z,100770.91
2023-04-16T04:40:01.583Z,100769.88
2023-04-16T04:42:28.249Z,100774.47
2023-04-16T04:44:54.841Z,100773.63
2023-04-16T04:47:21.487Z,100772.16
2023-04-16T04:49:48.153Z,100777.44
2023-04-16T04:52:14.780Z,100773.44
2023-04-16T04:54:41.850Z,100773.44
2023-04-16T04:57:08.793Z,100773.84
2023-04-16T04:59:35.433Z,100776.38
2023-04-16T05:02:03.510Z,100778.06
2023-04-16T05:04:31.220Z,100780.16
2023-04-16T05:06:58.000Z,100777.63
2023-04-16T05:09:24.735Z,100781.41
2023-04-16T05:11:51.423Z,100778.06
2023-04-16T05:14:18.109Z,100774.69
2023-04-16T05:16:44.830Z,100780.38
2023-04-16T05:19:11.710Z,100784.34
2023-04-16T05:21:38.550Z,100784.78
2023-04-16T05:24:05.489Z,100778.69
2023-04-16T05:26:32.077Z,100781.44
2023-04-16T05:28:58.661Z,100783.94
2023-04-16T05:31:25.426Z,100791.50
2023-04-16T05:33:52.193Z,100789.63
2023-04-16T05:36:18.805Z,100785.00
2023-04-16T05:38:45.598Z,100795.31
2023-04-16T05:41:12.552Z,100788.56
2023-04-16T05:43:39.272Z,100794.88
2023-04-16T05:46:05.899Z,100789.41
2023-04-16T05:48:32.605Z,100797.81
2023-04-16T05:50:59.248Z,100803.28
2023-04-16T05:53:25.970Z,100807.47
2023-04-16T05:55:52.619Z,100800.31
2023-04-16T05:58:19.196Z,100810.00
2023-04-16T06:00:45.857Z,100810.84
2023-04-16T06:03:12.673Z,100804.94
2023-04-16T06:05:39.546Z,100805.38
2023-04-16T06:08:06.206Z,100812.31
2023-04-16T06:10:33.281Z,100819.47
2023-04-16T06:12:59.992Z,100814.81
2023-04-16T06:15:26.590Z,100819.66
2023-04-16T06:17:53.241Z,100823.03
2023-04-16T06:20:20.009Z,100830.59
2023-04-16T06:22:46.679Z,100827.63
2023-04-16T06:25:13.840Z,100830.38
2023-04-16T06:27:41.096Z,100830.56
2023-04-16T06:30:13.083Z,100837.94
2023-04-16T06:32:39.894Z,100832.03
2023-04-16T06:35:07.129Z,100836.03
2023-04-16T06:37:33.746Z,100841.28
2023-04-16T06:40:00.409Z,100835.59
2023-04-16T06:42:27.318Z,100848.63
2023-04-16T06:44:54.657Z,100842.13
2023-04-16T06:47:21.480Z,100849.88
2023-04-16T06:49:48.116Z,100842.75
2023-04-16T06:52:14.806Z,100846.72
2023-04-16T06:54:41.450Z,100847.34
2023-04-16T06:57:08.129Z,100852.81
2023-04-16T06:59:34.725Z,100855.97
2023-04-16T07:02:01.529Z,100857.22
2023-04-16T07:04:28.299Z,100852.41
2023-04-16T07:06:54.941Z,100857.03
2023-04-16T07:09:21.580Z,100852.19
2023-04-16T07:11:48.341Z,100857.22
2023-04-16T07:14:15.076Z,100856.38
2023-04-16T07:16:41.757Z,100859.94
2023-04-16T07:19:08.736Z,100863.94
2023-04-16T07:21:35.819Z,100858.69
2023-04-16T07:24:03.040Z,100859.06
2023-04-16T07:26:29.663Z,100858.69
2023-04-16T07:28:56.324Z,100851.72
2023-04-16T07:31:23.012Z,100847.28
2023-04-16T07:33:49.767Z,100857.81
2023-04-16T07:36:16.352Z,100857.56
2023-04-16T07:38:43.052Z,100868.72
2023-04-16T07:41:09.906Z,100865.97
2023-04-16T07:43:37.165Z,100869.97
2023-04-16T07:46:03.843Z,100869.94
2023-04-16T07:48:30.579Z,100876.03
2023-04-16T07:50:57.809Z,100879.41
2023-04-16T07:53:24.488Z,100871.59
2023-04-16T07:55:51.164Z,100870.31
2023-04-16T07:58:18.226Z,100869.03
2023-04-16T08:00:45.693Z,100876.22
2023-04-16T08:03:12.590Z,100878.31
2023-04-16T08:05:39.595Z,100878.72
2023-04-16T08:08:06.430Z,100876.38
2023-04-16T08:10:34.268Z,100876.22
2023-04-16T08:13:02.006Z,100881.69
2023-04-16T08:15:28.839Z,100878.06
2023-04-16T08:17:55.548Z,100885.63
2023-04-16T08:20:22.186Z,100891.09
2023-04-16T08:22:49.327Z,100887.66
2023-04-16T08:25:16.077Z,100890.38
2023-04-16T08:27:42.765Z,100885.72
2023-04-16T08:30:09.531Z,100890.75
2023-04-16T08:32:36.202Z,100889.50
2023-04-16T08:35:02.993Z,100888.19
2023-04-16T08:37:29.629Z,100887.75
2023-04-16T08:39:56.275Z,100886.06
2023-04-16T08:42:40.781Z,100891.06
2023-04-16T08:45:11.877Z,100895.72
2023-04-16T08:47:38.877Z,100891.66
2023-04-16T08:50:06.386Z,100896.41
2023-04-16T08:52:36.209Z,100894.19
2023-04-16T08:55:02.915Z,100881.53
2023-04-16T08:57:35.360Z,100875.16
2023-04-16T09:00:02.587Z,100880.13
2023-04-16T09:02:31.495Z,100871.25
2023-04-16T09:05:00.130Z,100871.16
2023-04-16T09:07:29.145Z,100867.75
2023-04-16T09:09:57.960Z,100875.03
2023-04-16T09:12:25.579Z,100872.78
2023-04-16T09:14:52.845Z,100878.50
2023-04-16T09:17:19.868Z,100882.44
2023-04-16T09:19:46.641Z,100883.38
2023-04-16T09:22:13.292Z,100881.03
2023-04-16T09:24:39.985Z,100875.00
2023-04-16T09:27:08.136Z,100882.03
2023-04-16T09:29:40.006Z,100882.25
2023-04-16T09:32:11.712Z,100895.59
2023-04-16T09:34:58.739Z,100891.09
2023-04-16T09:37:26.895Z,100897.50
2023-04-16T09:39:56.221Z,100887.97
2023-04-16T09:42:28.381Z,100897.28
2023-04-16T09:44:57.860Z,100896.66
2023-04-16T09:47:38.864Z,100891.59
2023-04-16T09:50:06.112Z,100899.66
2023-04-16T09:52:37.479Z,100904.19
2023-04-16T09:55:04.541Z,100901.19
2023-04-16T09:57:31.197Z,100896.16
2023-04-16T10:00:09.569Z,100903.34
2023-04-16T10:02:39.326Z,100910.66
2023-04-16T10:05:06.539Z,100910.53
2023-04-16T10:07:37.459Z,100912.19
2023-04-16T10:10:05.697Z,100920.28
2023-04-16T10:12:33.329Z,100924.03
2023-04-16T10:15:00.417Z,100916.34
2023-04-16T10:17:30.093Z,100920.06
2023-04-16T10:19:58.448Z,100920.56
2023-04-16T10:22:26.486Z,100923.19
2023-04-16T10:24:54.799Z,100921.66
2023-04-16T10:27:21.654Z,100920.31
2023-04-16T10:29:49.493Z,100918.78
2023-04-16T10:32:18.323Z,100926.63
2023-04-16T10:34:45.253Z,100920.56
2023-04-16T10:37:12.682Z,100914.66
2023-04-16T10:39:39.506Z,100911.91
2023-04-16T10:42:11.868Z,100907.16
2023-04-16T10:44:45.256Z,100912.63
2023-04-16T10:47:13.999Z,100913.41
2023-04-16T10:49:42.701Z,100910.03
2023-04-16T10:52:19.283Z,100913.22
2023-04-16T10:54:51.096Z,100906.19
2023-04-16T10:57:19.707Z,100917.47
2023-04-16T10:59:48.752Z,100919.44
2023-04-16T11:02:19.431Z,100911.25
2023-04-16T11:04:48.600Z,100912.00
2023-04-16T11:07:17.328Z,100908.19
2023-04-16T11:09:57.595Z,100916.09
2023-04-16T11:12:31.215Z,100920.31
2023-04-16T11:15:02.152Z,100915.31
2023-04-16T11:17:32.325Z,100919.50
2023-04-16T11:20:01.795Z,100923.00
2023-04-16T11:22:28.895Z,100922.31
2023-04-16T11:24:56.862Z,100923.72
2023-04-16T11:27:24.707Z,100921.22
2023-04-16T11:29:59.099Z,100921.88
2023-04-16T11:32:26.582Z,100933.22
2023-04-16T11:34:53.248Z,100926.09
2023-04-16T11:37:35.833Z,100933.38
2023-04-16T11:40:08.479Z,100928.91
2023-04-16T11:42:40.620Z,100933.31
2023-04-16T11:45:09.773Z,100941.94
2023-04-16T11:47:53.216Z,100939.75
2023-04-16T11:50:20.708Z,100944.59
2023-04-16T11:52:48.226Z,100935.09
2023-04-16T11:55:15.432Z,100937.59
2023-04-16T11:57:42.310Z,100938.34
2023-04-16T12:00:15.405Z,100934.13
2023-04-16T12:02:49.982Z,100932.72
2023-04-16T12:05:34.097Z,100937.50
2023-04-16T12:08:03.340Z,100935.25
2023-04-16T12:10:31.140Z,100924.75
2023-04-16T12:13:15.834Z,100930.56
2023-04-16T12:15:49.779Z,100926.47
2023-04-16T12:18:22.931Z,100920.94
2023-04-16T12:20:51.323Z,100921.09
2023-04-16T12:23:33.197Z,100914.19
2023-04-16T12:26:10.990Z,100920.03
2023-04-16T12:28:38.850Z,100906.88
2023-04-16T12:31:06.584Z,100908.28
2023-04-16T12:33:34.277Z,100914.38
2023-04-16T12:36:02.147Z,100916.50
2023-04-16T12:38:29.519Z,100918.16
2023-04-16T12:40:57.715Z,100916.41
2023-04-16T12:43:25.215Z,100922.28
2023-04-16T12:45:51.877Z,100922.66
2023-04-16T12:48:18.514Z,100918.84
2023-04-16T12:50:45.198Z,100924.22
2023-04-16T12:53:12.133Z,100922.31
2023-04-16T12:55:39.136Z,100922.56
2023-04-16T12:58:05.960Z,100933.31
2023-04-16T13:00:32.858Z,100929.94
2023-04-16T13:02:59.690Z,100929.09
2023-04-16T13:05:27.221Z,100933.56
2023-04-16T13:07:54.165Z,100929.13
2023-04-16T13:10:22.253Z,100935.81
2023-04-16T13:12:49.216Z,100930.78
2023-04-16T13:15:15.941Z,100922.75
2023-04-16T13:17:42.642Z,100925.63
2023-04-16T13:20:09.971Z,100926.75
2023-04-16T13:22:36.958Z,100924.94
2023-04-16T13:25:05.768Z,100929.84
2023-04-16T13:27:32.667Z,100931.66
2023-04-16T13:29:59.428Z,100934.72
2023-04-16T13:32:26.457Z,100931.63
2023-04-16T13:34:53.135Z,100926.94
2023-04-16T13:37:19.803Z,100926.06
2023-04-16T13:39:47.357Z,100933.53
2023-04-16T13:42:14.074Z,100926.59
2023-04-16T13:44:41.153Z,100921.78
2023-04-16T13:47:08.124Z,100923.56
2023-04-16T13:49:36.169Z,100917.56
2023-04-16T13:52:03.314Z,100914.72
2023-04-16T13:54:29.895Z,100925.28
2023-04-16T13:56:56.795Z,100922.84
2023-04-16T13:59:23.622Z,100926.06
2023-04-16T14:01:50.876Z,100923.94
2023-04-16T14:04:17.789Z,100922.88
2023-04-16T14:06:44.548Z,100925.53
2023-04-16T14:09:11.714Z,100925.28
2023-04-16T14:11:38.664Z,100918.94
2023-04-16T14:14:05.498Z,100920.84
2023-04-16T14:16:32.215Z,100920.47
2023-04-16T14:18:58.852Z,100914.50
2023-04-16T14:21:27.036Z,100915.97
2023-04-16T14:23:53.654Z,100913.78
2023-04-16T14:26:20.734Z,100917.72
2023-04-16T14:28:47.683Z,100914.63
2023-04-16T14:31:14.522Z,100911.28
2023-04-16T14:33:41.296Z,100920.00
2023-04-16T14:36:07.988Z,100918.69
2023-04-16T14:38:35.121Z,100910.69
2023-04-16T14:41:01.793Z,100909.25
2023-04-16T14:43:29.273Z,100909.59
2023-04-16T14:45:57.166Z,100907.09
2023-04-16T14:48:23.861Z,100905.06
2023-04-16T14:50:50.668Z,100903.84
2023-04-16T14:53:17.815Z,100908.75
2023-04-16T14:55:44.545Z,100905.63
2023-04-16T14:58:11.222Z,100894.06
2023-04-16T15:00:38.138Z,100907.69
2023-04-16T15:03:05.851Z,100911.38
2023-04-16T15:05:32.856Z,100907.56
2023-04-16T15:08:00.507Z,100908.47
2023-04-16T15:10:27.516Z,100905.47
2023-04-16T15:12:54.307Z,100905.00
2023-04-16T15:15:21.073Z,100906.47
2023-04-16T15:17:47.845Z,100904.56
2023-04-16T15:20:14.705Z,100910.69
2023-04-16T15:22:41.352Z,100902.19
2023-04-16T15:25:08.733Z,100900.03
2023-04-16T15:27:35.479Z,100901.22
2023-04-16T15:30:02.438Z,100896.22
2023-04-16T15:32:29.169Z,100891.91
2023-04-16T15:34:55.906Z,100894.16
2023-04-16T15:37:22.488Z,100884.59
2023-04-16T15:39:49.818Z,100888.31
2023-04-16T15:42:16.665Z,100889.66
2023-04-16T15:44:43.308Z,100890.59
2023-04-16T15:47:09.956Z,100887.97
2023-04-16T15:49:36.634Z,100888.19
2023-04-16T15:52:03.393Z,100887.63
2023-04-16T15:54:31.889Z,100889.63
2023-04-16T15:56:59.107Z,100882.56
2023-04-16T15:59:26.824Z,100881.16
2023-04-16T16:01:53.605Z,100877.53
2023-04-16T16:04:22.974Z,100883.66
2023-04-16T16:06:50.781Z,100880.69
2023-04-16T16:09:18.110Z,100878.28
2023-04-16T16:11:44.770Z,100879.56
2023-04-16T16:14:12.141Z,100874.66
2023-04-16T16:16:39.873Z,100873.38
2023-04-16T16:19:06.974Z,100883.78
2023-04-16T16:21:33.680Z,100869.78
2023-04-16T16:24:00.299Z,100877.91
2023-04-16T16:26:27.210Z,100877.06
2023-04-16T16:28:53.951Z,100875.03
2023-04-16T16:31:20.985Z,100873.75
2023-04-16T16:33:47.713Z,100874.91
2023-04-16T16:36:14.762Z,100878.25
2023-04-16T16:38:42.653Z,100878.25
2023-04-16T16:41:10.078Z,100882.06
2023-04-16T16:43:36.876Z,100881.22
2023-04-16T16:46:03.825Z,100879.69
2023-04-16T16:48:30.522Z,100888.69
2023-04-16T16:50:57.309Z,100878.16
2023-04-16T16:53:23.951Z,100884.97
2023-04-16T16:55:51.161Z,100891.44
2023-04-16T16:58:18.096Z,100895.19
2023-04-16T17:00:44.765Z,100896.97
2023-04-16T17:03:11.546Z,100896.47
2023-04-16T17:05:38.385Z,100886.25
2023-04-16T17:08:06.665Z,100888.59
2023-04-16T17:10:33.343Z,100886.69
2023-04-16T17:13:00.020Z,100885.25
2023-04-16T17:15:26.839Z,100882.28
2023-04-16T17:17:53.834Z,100889.81
2023-04-16T17:20:21.291Z,100888.03
2023-04-16T17:22:48.001Z,100887.59
2023-04-16T17:25:14.698Z,100890.59
2023-04-16T17:27:41.526Z,100882.19
2023-04-16T17:30:08.548Z,100886.25
2023-04-16T17:32:35.861Z,100889.63
2023-04-16T17:35:04.428Z,100894.47
2023-04-16T17:37:31.506Z,100884.56
2023-04-16T17:39:58.093Z,100889.94
2023-04-16T17:42:25.368Z,100887.03
2023-04-16T17:44:54.088Z,100887.09
2023-04-16T17:47:20.989Z,100890.63
2023-04-16T17:49:47.721Z,100895.59
2023-04-16T17:52:14.380Z,100894.91
2023-04-16T17:54:42.224Z,100888.31
2023-04-16T17:57:08.956Z,100891.06
2023-04-16T17:59:35.853Z,100889.66
2023-04-16T18:02:03.788Z,100889.03
2023-04-16T18:04:30.857Z,100888.03
2023-04-16T18:06:57.624Z,100881.63
2023-04-16T18:09:24.440Z,100877.78
2023-04-16T18:11:51.578Z,100884.34
2023-04-16T18:14:20.481Z,100874.91
2023-04-16T18:16:48.312Z,100874.06
2023-04-16T18:19:16.457Z,100885.53
2023-04-16T18:21:43.640Z,100885.97
2023-04-16T18:24:11.104Z,100879.66
2023-04-16T18:26:40.817Z,100889.03
2023-04-16T18:29:07.906Z,100884.00
2023-04-16T18:31:34.564Z,100882.25
2023-04-16T18:34:01.274Z,100883.31
2023-04-16T18:36:28.154Z,100889.47
2023-04-16T18:39:15.850Z,100891.19
2023-04-16T18:41:43.747Z,100896.81
2023-04-16T18:44:12.996Z,100898.72
2023-04-16T18:46:39.696Z,100899.63
2023-04-16T18:49:06.463Z,100895.44
2023-04-16T18:51:33.178Z,100896.69
2023-04-16T18:53:59.854Z,100895.75
2023-04-16T18:56:28.765Z,100897.66
2023-04-16T18:58:55.459Z,100909.34
2023-04-16T19:01:22.122Z,100903.44
2023-04-16T19:03:48.916Z,100907.28
2023-04-16T19:06:15.715Z,100909.78
2023-04-16T19:08:42.378Z,100905.97
2023-04-16T19:11:08.994Z,100907.66
2023-04-16T19:13:35.702Z,100907.03
2023-04-16T19:16:03.001Z,100906.44
2023-04-16T19:18:30.150Z,100902.63
2023-04-16T19:21:00.745Z,100903.69
2023-04-16T19:23:27.969Z,100909.78
2023-04-16T19:25:56.864Z,100913.16
2023-04-16T19:28:24.854Z,100914.88
2023-04-16T19:30:52.363Z,100922.56
2023-04-16T19:33:19.148Z,100919.91
2023-04-16T19:35:47.239Z,100923.06
2023-04-16T19:38:14.236Z,100925.56
2023-04-16T19:40:44.559Z,100926.63
2023-04-16T19:43:11.298Z,100926.47
2023-04-16T19:45:43.606Z,100936.63
2023-04-16T19:48:10.547Z,100929.66
2023-04-16T19:50:41.358Z,100939.56
2023-04-16T19:53:08.395Z,100934.03
2023-04-16T19:55:35.132Z,100939.53
2023-04-16T19:58:06.145Z,100945.84
2023-04-16T20:00:37.555Z,100937.47
2023-04-16T20:03:05.197Z,100931.97
2023-04-16T20:05:31.922Z,100935.16
2023-04-16T20:07:58.571Z,100931.56
2023-04-16T20:10:26.118Z,100937.91
2023-04-16T20:12:52.728Z,100933.25
2023-04-16T20:15:19.677Z,100941.28
2023-04-16T20:17:46.371Z,100936.22
2023-04-16T20:20:15.728Z,100937.66
2023-04-16T20:22:43.410Z,100942.56
2023-04-16T20:25:10.556Z,100938.75
2023-04-16T20:27:37.297Z,100936.81
2023-04-16T20:30:05.517Z,100931.81
2023-04-16T20:32:32.372Z,100937.31
2023-04-16T20:34:59.761Z,100934.59
2023-04-16T20:37:28.766Z,100939.25
2023-04-16T20:39:56.096Z,100938.44
2023-04-16T20:42:23.236Z,100934.69
2023-04-16T20:44:56.313Z,100935.09
2023-04-16T20:47:23.288Z,100935.53
2023-04-16T20:49:49.909Z,100938.09
2023-04-16T20:52:16.828Z,100936.88
2023-04-16T20:54:43.436Z,100939.16
2023-04-16T20:57:10.707Z,100944.00
2023-04-16T20:59:37.357Z,100933.84
2023-04-16T21:02:04.286Z,100931.31
2023-04-16T21:04:31.233Z,100926.44
2023-04-16T21:06:57.897Z,100923.47
2023-04-16T21:09:24.742Z,100928.38
2023-04-16T21:11:51.365Z,100926.66
2023-04-16T21:14:18.444Z,100926.66
2023-04-16T21:16:45.078Z,100921.41
2023-04-16T21:19:11.980Z,100922.88
2023-04-16T21:21:38.934Z,100912.09
2023-04-16T21:24:05.951Z,100926.66
2023-04-16T21:26:32.561Z,100933.00
2023-04-16T21:28:59.162Z,100922.47
2023-04-16T21:31:26.274Z,100927.13
2023-04-16T21:33:52.922Z,100933.00
2023-04-16T21:36:19.509Z,100934.28
2023-04-16T21:38:46.123Z,100923.31
2023-04-16T21:41:13.431Z,100925.38
2023-04-16T21:43:40.041Z,100925.16
2023-04-16T21:46:06.711Z,100932.53
2023-04-16T21:48:33.448Z,100923.72
2023-04-16T21:51:06.382Z,100925.63
2023-04-16T21:53:33.653Z,100924.53
2023-04-16T21:56:00.322Z,100928.38
2023-04-16T21:58:26.978Z,100931.94
2023-04-16T22:00:54.305Z,100924.78
2023-04-16T22:03:26.505Z,100931.09
2023-04-16T22:06:02.518Z,100928.81
2023-04-16T22:08:30.272Z,100929.25
2023-04-16T22:11:02.058Z,100929.72
2023-04-16T22:13:32.454Z,100933.72
2023-04-16T22:16:03.561Z,100932.91
2023-04-16T22:18:33.765Z,100936.25
2023-04-16T22:21:00.862Z,100937.31
2023-04-16T22:23:29.350Z,100927.19
2023-04-16T22:25:56.431Z,100939.38
2023-04-16T22:28:23.639Z,100925.91
2023-04-16T22:30:50.510Z,100930.91
2023-04-16T22:33:17.265Z,100930.91
2023-04-16T22:35:43.905Z,100933.44
2023-04-16T22:38:10.830Z,100931.38
2023-04-16T22:40:37.852Z,100926.28
2023-04-16T22:43:04.870Z,100933.44
2023-04-16T22:45:31.575Z,100919.94
2023-04-16T22:47:58.479Z,100934.28
2023-04-16T22:50:25.318Z,100929.03
2023-04-16T22:52:52.027Z,100934.72
2023-04-16T22:55:18.661Z,100931.53
2023-04-16T22:57:45.255Z,100927.13
2023-04-16T23:00:16.216Z,100934.28
2023-04-16T23:02:43.305Z,100939.78
2023-04-16T23:05:10.510Z,100936.81
2023-04-16T23:07:37.330Z,100939.78
2023-04-16T23:10:04.246Z,100939.78
2023-04-16T23:12:30.959Z,100938.09
2023-04-16T23:14:58.360Z,100940.44
2023-04-16T23:17:25.117Z,100934.72
2023-04-16T23:19:53.170Z,100942.38
2023-04-16T23:22:19.781Z,100948.91
2023-04-16T23:24:46.412Z,100941.72
2023-04-16T23:27:13.000Z,100941.97
2023-04-16T23:29:39.625Z,100942.81
2023-04-16T23:32:06.494Z,100943.03
2023-04-16T23:34:33.086Z,100943.19
2023-04-16T23:36:59.711Z,100938.38
2023-04-16T23:39:27.275Z,100939.47
2023-04-16T23:41:53.963Z,100937.94
2023-04-16T23:44:20.590Z,100941.72
2023-04-16T23:46:47.259Z,100944.72
2023-04-16T23:49:13.864Z,100945.16
2023-04-16T23:51:40.609Z,100946.22
2023-04-16T23:54:07.294Z,100947.69
2023-04-16T23:56:33.996Z,100953.78
2023-04-16T23:59:00.775Z,100947.69
